sensor_id;sensor_type;location;lat;lon;timestamp;temperature;humidity
8945;DHT22;4507;40.232;29.132;2023-05-07T00:02:01;12.50;99.90
8945;DHT22;4507;40.232;29.132;2023-05-07T00:04:31;12.50;99.90
8945;DHT22;4507;40.232;29.132;2023-05-07T00:07:04;12.40;99.90
8945;DHT22;4507;40.232;29.132;2023-05-07T00:09:34;12.40;99.90
8945;DHT22;4507;40.232;29.132;2023-05-07T00:12:03;12.40;99.90
8945;DHT22;4507;40.232;29.132;2023-05-07T00:14:32;12.40;99.90
8945;DHT22;4507;40.232;29.132;2023-05-07T00:17:01;12.40;99.90
8945;DHT22;4507;40.232;29.132;2023-05-07T00:19:30;12.40;99.90
8945;DHT22;4507;40.232;29.132;2023-05-07T00:21:59;12.30;99.90
8945;DHT22;4507;40.232;29.132;2023-05-07T00:24:28;12.40;99.90
8945;DHT22;4507;40.232;29.132;2023-05-07T00:26:59;12.30;99.90
8945;DHT22;4507;40.232;29.132;2023-05-07T00:29:27;12.30;99.90
8945;DHT22;4507;40.232;29.132;2023-05-07T00:31:56;12.40;99.90
8945;DHT22;4507;40.232;29.132;2023-05-07T00:34:25;12.30;99.90
8945;DHT22;4507;40.232;29.132;2023-05-07T00:36:54;12.30;99.90
8945;DHT22;4507;40.232;29.132;2023-05-07T00:39:24;12.30;99.90
8945;DHT22;4507;40.232;29.132;2023-05-07T00:41:52;12.30;99.90
8945;DHT22;4507;40.232;29.132;2023-05-07T00:44:23;12.30;99.90
8945;DHT22;4507;40.232;29.132;2023-05-07T00:46:52;12.30;99.90
8945;DHT22;4507;40.232;29.132;2023-05-07T00:49:22;12.30;99.90
8945;DHT22;4507;40.232;29.132;2023-05-07T00:51:52;12.30;99.90
8945;DHT22;4507;40.232;29.132;2023-05-07T00:54:22;12.30;99.90
8945;DHT22;4507;40.232;29.132;2023-05-07T00:56:51;12.30;99.90
8945;DHT22;4507;40.232;29.132;2023-05-07T00:59:20;12.30;99.90
8945;DHT22;4507;40.232;29.132;2023-05-07T01:01:52;12.30;99.90
8945;DHT22;4507;40.232;29.132;2023-05-07T01:04:20;12.30;99.90
8945;DHT22;4507;40.232;29.132;2023-05-07T01:06:51;12.30;99.90
8945;DHT22;4507;40.232;29.132;2023-05-07T01:09:21;12.40;99.90
8945;DHT22;4507;40.232;29.132;2023-05-07T01:11:50;12.40;99.90
8945;DHT22;4507;40.232;29.132;2023-05-07T01:14:20;12.50;99.90
8945;DHT22;4507;40.232;29.132;2023-05-07T01:16:51;12.50;99.90
8945;DHT22;4507;40.232;29.132;2023-05-07T01:19:22;12.50;99.90
8945;DHT22;4507;40.232;29.132;2023-05-07T01:21:56;12.50;99.90
8945;DHT22;4507;40.232;29.132;2023-05-07T01:24:31;12.50;99.90
8945;DHT22;4507;40.232;29.132;2023-05-07T01:27:00;12.60;99.90
8945;DHT22;4507;40.232;29.132;2023-05-07T01:29:32;12.60;99.90
8945;DHT22;4507;40.232;29.132;2023-05-07T01:32:01;12.60;99.90
8945;DHT22;4507;40.232;29.132;2023-05-07T01:34:32;12.60;99.90
8945;DHT22;4507;40.232;29.132;2023-05-07T01:37:05;12.60;99.90
8945;DHT22;4507;40.232;29.132;2023-05-07T01:39:37;12.60;99.90
8945;DHT22;4507;40.232;29.132;2023-05-07T01:42:06;12.60;99.90
8945;DHT22;4507;40.232;29.132;2023-05-07T01:44:36;12.60;99.90
8945;DHT22;4507;40.232;29.132;2023-05-07T01:47:05;12.60;99.90
8945;DHT22;4507;40.232;29.132;2023-05-07T01:49:35;12.60;99.90
8945;DHT22;4507;40.232;29.132;2023-05-07T01:52:04;12.60;99.90
8945;DHT22;4507;40.232;29.132;2023-05-07T01:54:34;12.60;99.90
8945;DHT22;4507;40.232;29.132;2023-05-07T01:57:04;12.60;99.90
8945;DHT22;4507;40.232;29.132;2023-05-07T01:59:33;12.60;99.90
8945;DHT22;4507;40.232;29.132;2023-05-07T02:02:02;12.60;99.90
8945;DHT22;4507;40.232;29.132;2023-05-07T02:04:32;12.60;99.90
8945;DHT22;4507;40.232;29.132;2023-05-07T02:07:20;12.60;99.90
8945;DHT22;4507;40.232;29.132;2023-05-07T02:09:51;12.70;99.90
8945;DHT22;4507;40.232;29.132;2023-05-07T02:12:20;12.70;99.90
8945;DHT22;4507;40.232;29.132;2023-05-07T02:14:49;12.70;99.90
8945;DHT22;4507;40.232;29.132;2023-05-07T02:17:18;12.80;99.90
8945;DHT22;4507;40.232;29.132;2023-05-07T02:19:47;12.80;99.90
8945;DHT22;4507;40.232;29.132;2023-05-07T02:22:16;12.80;99.90
8945;DHT22;4507;40.232;29.132;2023-05-07T02:24:45;12.90;99.90
8945;DHT22;4507;40.232;29.132;2023-05-07T02:27:15;12.90;99.90
8945;DHT22;4507;40.232;29.132;2023-05-07T02:29:44;12.90;99.90
8945;DHT22;4507;40.232;29.132;2023-05-07T02:32:14;12.90;99.90
8945;DHT22;4507;40.232;29.132;2023-05-07T02:34:42;12.90;99.90
8945;DHT22;4507;40.232;29.132;2023-05-07T02:37:12;12.90;99.90
8945;DHT22;4507;40.232;29.132;2023-05-07T02:39:40;13.00;99.90
8945;DHT22;4507;40.232;29.132;2023-05-07T02:42:09;13.00;99.90
8945;DHT22;4507;40.232;29.132;2023-05-07T02:44:40;13.00;99.90
8945;DHT22;4507;40.232;29.132;2023-05-07T02:47:09;13.00;99.90
8945;DHT22;4507;40.232;29.132;2023-05-07T02:49:41;13.00;99.90
8945;DHT22;4507;40.232;29.132;2023-05-07T02:52:10;13.00;99.90
8945;DHT22;4507;40.232;29.132;2023-05-07T02:54:39;13.00;99.90
8945;DHT22;4507;40.232;29.132;2023-05-07T02:57:08;13.00;99.90
8945;DHT22;4507;40.232;29.132;2023-05-07T02:59:39;13.00;99.90
8945;DHT22;4507;40.232;29.132;2023-05-07T03:02:08;13.40;99.90
8945;DHT22;4507;40.232;29.132;2023-05-07T03:04:38;13.00;99.90
8945;DHT22;4507;40.232;29.132;2023-05-07T03:07:07;13.00;99.90
8945;DHT22;4507;40.232;29.132;2023-05-07T03:09:36;13.00;99.90
8945;DHT22;4507;40.232;29.132;2023-05-07T03:12:06;13.00;99.90
8945;DHT22;4507;40.232;29.132;2023-05-07T03:14:35;13.00;99.90
8945;DHT22;4507;40.232;29.132;2023-05-07T03:17:07;13.00;99.90
8945;DHT22;4507;40.232;29.132;2023-05-07T03:19:36;13.00;99.90
8945;DHT22;4507;40.232;29.132;2023-05-07T03:22:05;13.00;99.90
8945;DHT22;4507;40.232;29.132;2023-05-07T03:24:34;13.00;99.90
8945;DHT22;4507;40.232;29.132;2023-05-07T03:27:03;13.10;99.90
8945;DHT22;4507;40.232;29.132;2023-05-07T03:29:32;13.10;99.90
8945;DHT22;4507;40.232;29.132;2023-05-07T03:32:01;13.10;99.90
8945;DHT22;4507;40.232;29.132;2023-05-07T03:34:32;13.10;99.90
8945;DHT22;4507;40.232;29.132;2023-05-07T03:37:02;13.10;99.90
8945;DHT22;4507;40.232;29.132;2023-05-07T03:39:31;13.10;99.90
8945;DHT22;4507;40.232;29.132;2023-05-07T03:42:00;13.10;99.90
8945;DHT22;4507;40.232;29.132;2023-05-07T03:44:31;13.10;99.90
8945;DHT22;4507;40.232;29.132;2023-05-07T03:47:00;13.10;99.90
8945;DHT22;4507;40.232;29.132;2023-05-07T03:49:29;13.10;99.90
8945;DHT22;4507;40.232;29.132;2023-05-07T03:52:00;13.10;99.90
8945;DHT22;4507;40.232;29.132;2023-05-07T03:54:31;13.10;99.90
8945;DHT22;4507;40.232;29.132;2023-05-07T03:57:00;13.10;99.90
8945;DHT22;4507;40.232;29.132;2023-05-07T03:59:29;13.10;99.90
8945;DHT22;4507;40.232;29.132;2023-05-07T04:01:58;13.10;99.90
8945;DHT22;4507;40.232;29.132;2023-05-07T04:04:31;13.10;99.90
8945;DHT22;4507;40.232;29.132;2023-05-07T04:07:02;13.10;99.90
8945;DHT22;4507;40.232;29.132;2023-05-07T04:09:37;13.10;99.90
8945;DHT22;4507;40.232;29.132;2023-05-07T04:12:07;13.10;99.90
8945;DHT22;4507;40.232;29.132;2023-05-07T04:14:36;13.10;99.90
8945;DHT22;4507;40.232;29.132;2023-05-07T04:17:05;13.10;99.90
8945;DHT22;4507;40.232;29.132;2023-05-07T04:19:34;13.10;99.90
8945;DHT22;4507;40.232;29.132;2023-05-07T04:22:04;13.10;99.90
8945;DHT22;4507;40.232;29.132;2023-05-07T04:24:33;13.10;99.90
8945;DHT22;4507;40.232;29.132;2023-05-07T04:27:03;13.10;99.90
8945;DHT22;4507;40.232;29.132;2023-05-07T04:29:33;13.10;99.90
8945;DHT22;4507;40.232;29.132;2023-05-07T04:32:03;13.10;99.90
8945;DHT22;4507;40.232;29.132;2023-05-07T04:34:32;13.10;99.90
8945;DHT22;4507;40.232;29.132;2023-05-07T04:37:04;13.10;99.90
8945;DHT22;4507;40.232;29.132;2023-05-07T04:39:33;13.10;99.90
8945;DHT22;4507;40.232;29.132;2023-05-07T04:42:03;13.20;99.90
8945;DHT22;4507;40.232;29.132;2023-05-07T04:44:33;13.20;99.90
8945;DHT22;4507;40.232;29.132;2023-05-07T04:47:02;13.20;99.90
8945;DHT22;4507;40.232;29.132;2023-05-07T04:49:31;13.20;99.90
8945;DHT22;4507;40.232;29.132;2023-05-07T04:52:00;13.30;99.90
8945;DHT22;4507;40.232;29.132;2023-05-07T04:54:33;13.30;99.90
8945;DHT22;4507;40.232;29.132;2023-05-07T04:57:03;13.30;99.90
8945;DHT22;4507;40.232;29.132;2023-05-07T04:59:33;13.40;99.90
8945;DHT22;4507;40.232;29.132;2023-05-07T05:02:02;13.40;99.90
8945;DHT22;4507;40.232;29.132;2023-05-07T05:04:32;13.40;99.90
8945;DHT22;4507;40.232;29.132;2023-05-07T05:07:01;13.40;99.90
8945;DHT22;4507;40.232;29.132;2023-05-07T05:09:33;13.40;99.90
8945;DHT22;4507;40.232;29.132;2023-05-07T05:12:02;13.40;99.90
8945;DHT22;4507;40.232;29.132;2023-05-07T05:14:36;13.50;99.90
8945;DHT22;4507;40.232;29.132;2023-05-07T05:17:06;13.50;99.90
8945;DHT22;4507;40.232;29.132;2023-05-07T05:19:36;13.50;99.90
8945;DHT22;4507;40.232;29.132;2023-05-07T05:22:05;13.50;99.90
8945;DHT22;4507;40.232;29.132;2023-05-07T05:24:36;13.60;99.90
8945;DHT22;4507;40.232;29.132;2023-05-07T05:27:05;13.60;99.90
8945;DHT22;4507;40.232;29.132;2023-05-07T05:29:34;13.60;99.90
8945;DHT22;4507;40.232;29.132;2023-05-07T05:32:03;13.60;99.90
8945;DHT22;4507;40.232;29.132;2023-05-07T05:34:32;13.70;99.90
8945;DHT22;4507;40.232;29.132;2023-05-07T05:37:03;13.70;99.90
8945;DHT22;4507;40.232;29.132;2023-05-07T05:39:32;13.70;99.90
8945;DHT22;4507;40.232;29.132;2023-05-07T05:42:03;13.70;99.90
8945;DHT22;4507;40.232;29.132;2023-05-07T05:44:34;13.80;99.90
8945;DHT22;4507;40.232;29.132;2023-05-07T05:47:04;13.80;99.90
8945;DHT22;4507;40.232;29.132;2023-05-07T05:49:34;13.80;99.90
8945;DHT22;4507;40.232;29.132;2023-05-07T05:52:05;13.90;99.90
8945;DHT22;4507;40.232;29.132;2023-05-07T05:54:37;13.90;99.90
8945;DHT22;4507;40.232;29.132;2023-05-07T05:57:08;13.90;99.90
8945;DHT22;4507;40.232;29.132;2023-05-07T05:59:37;14.00;99.90
8945;DHT22;4507;40.232;29.132;2023-05-07T06:02:06;14.00;99.90
8945;DHT22;4507;40.232;29.132;2023-05-07T06:04:36;14.00;99.90
8945;DHT22;4507;40.232;29.132;2023-05-07T06:07:05;14.10;99.90
8945;DHT22;4507;40.232;29.132;2023-05-07T06:09:34;14.10;99.90
8945;DHT22;4507;40.232;29.132;2023-05-07T06:12:03;14.10;99.90
8945;DHT22;4507;40.232;29.132;2023-05-07T06:14:34;14.10;99.90
8945;DHT22;4507;40.232;29.132;2023-05-07T06:17:03;14.10;99.90
8945;DHT22;4507;40.232;29.132;2023-05-07T06:19:36;14.20;99.90
8945;DHT22;4507;40.232;29.132;2023-05-07T06:22:09;14.20;99.90
8945;DHT22;4507;40.232;29.132;2023-05-07T06:24:39;14.20;99.90
8945;DHT22;4507;40.232;29.132;2023-05-07T06:27:10;14.30;99.90
8945;DHT22;4507;40.232;29.132;2023-05-07T06:29:44;14.30;99.90
8945;DHT22;4507;40.232;29.132;2023-05-07T06:32:21;14.30;99.90
8945;DHT22;4507;40.232;29.132;2023-05-07T06:34:51;14.30;99.90
8945;DHT22;4507;40.232;29.132;2023-05-07T06:37:21;14.40;99.90
8945;DHT22;4507;40.232;29.132;2023-05-07T06:39:54;14.40;99.90
8945;DHT22;4507;40.232;29.132;2023-05-07T06:42:26;14.50;99.90
8945;DHT22;4507;40.232;29.132;2023-05-07T06:45:00;14.50;99.90
8945;DHT22;4507;40.232;29.132;2023-05-07T06:47:31;14.60;99.90
8945;DHT22;4507;40.232;29.132;2023-05-07T06:50:04;14.60;99.90
8945;DHT22;4507;40.232;29.132;2023-05-07T06:52:34;14.70;99.90
8945;DHT22;4507;40.232;29.132;2023-05-07T06:55:07;14.70;99.90
8945;DHT22;4507;40.232;29.132;2023-05-07T06:57:37;14.80;99.90
8945;DHT22;4507;40.232;29.132;2023-05-07T07:00:10;14.80;99.90
8945;DHT22;4507;40.232;29.132;2023-05-07T07:02:46;14.90;99.90
8945;DHT22;4507;40.232;29.132;2023-05-07T07:05:19;14.90;99.90
8945;DHT22;4507;40.232;29.132;2023-05-07T07:07:50;15.00;99.90
8945;DHT22;4507;40.232;29.132;2023-05-07T07:10:21;15.00;99.90
8945;DHT22;4507;40.232;29.132;2023-05-07T07:12:52;15.10;99.90
8945;DHT22;4507;40.232;29.132;2023-05-07T07:15:23;15.10;99.90
8945;DHT22;4507;40.232;29.132;2023-05-07T07:17:54;15.20;99.90
8945;DHT22;4507;40.232;29.132;2023-05-07T07:20:24;15.20;99.90
8945;DHT22;4507;40.232;29.132;2023-05-07T07:22:54;15.30;99.90
8945;DHT22;4507;40.232;29.132;2023-05-07T07:25:24;15.40;99.90
8945;DHT22;4507;40.232;29.132;2023-05-07T07:27:53;15.50;99.90
8945;DHT22;4507;40.232;29.132;2023-05-07T07:30:26;15.60;99.90
8945;DHT22;4507;40.232;29.132;2023-05-07T07:33:01;15.70;99.90
8945;DHT22;4507;40.232;29.132;2023-05-07T07:35:46;15.80;99.90
8945;DHT22;4507;40.232;29.132;2023-05-07T07:38:17;15.80;99.90
8945;DHT22;4507;40.232;29.132;2023-05-07T07:40:51;16.00;99.90
8945;DHT22;4507;40.232;29.132;2023-05-07T07:43:23;16.10;99.90
8945;DHT22;4507;40.232;29.132;2023-05-07T07:45:55;16.10;99.90
8945;DHT22;4507;40.232;29.132;2023-05-07T07:48:25;16.20;99.90
8945;DHT22;4507;40.232;29.132;2023-05-07T07:50:55;16.30;99.90
8945;DHT22;4507;40.232;29.132;2023-05-07T07:53:24;16.30;99.90
8945;DHT22;4507;40.232;29.132;2023-05-07T07:55:56;16.40;99.90
8945;DHT22;4507;40.232;29.132;2023-05-07T07:58:29;16.40;99.90
8945;DHT22;4507;40.232;29.132;2023-05-07T08:01:01;16.40;99.70
8945;DHT22;4507;40.232;29.132;2023-05-07T08:03:30;16.50;99.80
8945;DHT22;4507;40.232;29.132;2023-05-07T08:06:19;16.60;99.50
8945;DHT22;4507;40.232;29.132;2023-05-07T08:08:48;16.60;99.10
8945;DHT22;4507;40.232;29.132;2023-05-07T08:11:17;16.70;98.90
8945;DHT22;4507;40.232;29.132;2023-05-07T08:13:46;16.70;98.80
8945;DHT22;4507;40.232;29.132;2023-05-07T08:16:17;16.80;98.80
8945;DHT22;4507;40.232;29.132;2023-05-07T08:18:48;16.80;98.60
8945;DHT22;4507;40.232;29.132;2023-05-07T08:21:17;16.90;98.20
8945;DHT22;4507;40.232;29.132;2023-05-07T08:23:47;16.90;98.10
8945;DHT22;4507;40.232;29.132;2023-05-07T08:26:16;17.00;98.10
8945;DHT22;4507;40.232;29.132;2023-05-07T08:28:46;17.10;98.10
8945;DHT22;4507;40.232;29.132;2023-05-07T08:31:17;17.20;98.20
8945;DHT22;4507;40.232;29.132;2023-05-07T08:33:46;17.30;98.20
8945;DHT22;4507;40.232;29.132;2023-05-07T08:36:15;17.50;98.30
8945;DHT22;4507;40.232;29.132;2023-05-07T08:38:46;17.60;98.00
8945;DHT22;4507;40.232;29.132;2023-05-07T08:41:17;17.70;97.80
8945;DHT22;4507;40.232;29.132;2023-05-07T08:43:47;17.80;97.70
8945;DHT22;4507;40.232;29.132;2023-05-07T08:46:20;18.00;97.60
8945;DHT22;4507;40.232;29.132;2023-05-07T08:48:54;18.10;97.50
8945;DHT22;4507;40.232;29.132;2023-05-07T08:51:23;18.30;96.90
8945;DHT22;4507;40.232;29.132;2023-05-07T08:53:53;18.40;96.40
8945;DHT22;4507;40.232;29.132;2023-05-07T08:56:29;18.60;96.10
8945;DHT22;4507;40.232;29.132;2023-05-07T08:59:01;18.70;95.60
8945;DHT22;4507;40.232;29.132;2023-05-07T09:01:32;18.80;95.50
8945;DHT22;4507;40.232;29.132;2023-05-07T09:04:04;18.90;95.10
8945;DHT22;4507;40.232;29.132;2023-05-07T09:06:35;19.00;94.80
8945;DHT22;4507;40.232;29.132;2023-05-07T09:09:24;19.10;94.10
8945;DHT22;4507;40.232;29.132;2023-05-07T09:11:57;19.10;93.60
8945;DHT22;4507;40.232;29.132;2023-05-07T09:14:29;19.20;93.80
8945;DHT22;4507;40.232;29.132;2023-05-07T09:17:01;19.20;93.30
8945;DHT22;4507;40.232;29.132;2023-05-07T09:19:30;19.30;93.50
8945;DHT22;4507;40.232;29.132;2023-05-07T09:22:05;19.40;93.40
8945;DHT22;4507;40.232;29.132;2023-05-07T09:24:47;19.50;92.90
8945;DHT22;4507;40.232;29.132;2023-05-07T09:27:19;19.50;92.40
8945;DHT22;4507;40.232;29.132;2023-05-07T09:29:49;19.60;92.10
8945;DHT22;4507;40.232;29.132;2023-05-07T09:32:20;19.60;91.80
8945;DHT22;4507;40.232;29.132;2023-05-07T09:34:49;19.70;91.90
8945;DHT22;4507;40.232;29.132;2023-05-07T09:37:22;19.80;92.00
8945;DHT22;4507;40.232;29.132;2023-05-07T09:39:51;19.90;91.90
8945;DHT22;4507;40.232;29.132;2023-05-07T09:42:26;20.00;91.10
8945;DHT22;4507;40.232;29.132;2023-05-07T09:44:59;20.10;91.10
8945;DHT22;4507;40.232;29.132;2023-05-07T09:47:37;20.20;91.40
8945;DHT22;4507;40.232;29.132;2023-05-07T09:50:09;20.30;91.40
8945;DHT22;4507;40.232;29.132;2023-05-07T09:52:40;20.50;91.30
8945;DHT22;4507;40.232;29.132;2023-05-07T09:55:12;20.70;90.90
8945;DHT22;4507;40.232;29.132;2023-05-07T09:57:42;20.80;90.60
8945;DHT22;4507;40.232;29.132;2023-05-07T10:00:13;20.90;90.20
8945;DHT22;4507;40.232;29.132;2023-05-07T10:02:51;21.00;90.20
8945;DHT22;4507;40.232;29.132;2023-05-07T10:05:29;21.20;89.40
8945;DHT22;4507;40.232;29.132;2023-05-07T10:08:00;21.20;87.90
8945;DHT22;4507;40.232;29.132;2023-05-07T10:10:34;21.10;86.60
8945;DHT22;4507;40.232;29.132;2023-05-07T10:13:06;21.00;85.80
8945;DHT22;4507;40.232;29.132;2023-05-07T10:15:42;20.90;85.60
8945;DHT22;4507;40.232;29.132;2023-05-07T10:18:13;20.80;85.30
8945;DHT22;4507;40.232;29.132;2023-05-07T10:20:47;20.70;85.40
8945;DHT22;4507;40.232;29.132;2023-05-07T10:23:23;20.60;85.40
8945;DHT22;4507;40.232;29.132;2023-05-07T10:26:02;20.50;84.70
8945;DHT22;4507;40.232;29.132;2023-05-07T10:28:36;20.40;84.80
8945;DHT22;4507;40.232;29.132;2023-05-07T10:31:19;20.30;85.20
8945;DHT22;4507;40.232;29.132;2023-05-07T10:33:55;20.20;85.10
8945;DHT22;4507;40.232;29.132;2023-05-07T10:36:44;20.10;85.60
8945;DHT22;4507;40.232;29.132;2023-05-07T10:39:14;20.50;86.30
8945;DHT22;4507;40.232;29.132;2023-05-07T10:41:44;20.00;86.30
8945;DHT22;4507;40.232;29.132;2023-05-07T10:44:25;20.00;86.60
8945;DHT22;4507;40.232;29.132;2023-05-07T10:47:08;20.00;86.80
8945;DHT22;4507;40.232;29.132;2023-05-07T10:52:44;20.20;86.60
8945;DHT22;4507;40.232;29.132;2023-05-07T10:55:21;20.30;87.60
8945;DHT22;4507;40.232;29.132;2023-05-07T10:58:26;20.40;87.40
8945;DHT22;4507;40.232;29.132;2023-05-07T11:01:09;20.50;87.20
8945;DHT22;4507;40.232;29.132;2023-05-07T11:06:41;20.70;87.10
8945;DHT22;4507;40.232;29.132;2023-05-07T11:09:12;20.90;87.80
8945;DHT22;4507;40.232;29.132;2023-05-07T11:11:51;21.00;87.50
8945;DHT22;4507;40.232;29.132;2023-05-07T11:14:43;21.10;86.10
8945;DHT22;4507;40.232;29.132;2023-05-07T11:17:25;21.20;85.90
8945;DHT22;4507;40.232;29.132;2023-05-07T11:20:02;21.30;84.30
8945;DHT22;4507;40.232;29.132;2023-05-07T11:22:55;21.40;84.10
8945;DHT22;4507;40.232;29.132;2023-05-07T11:25:34;21.40;83.30
8945;DHT22;4507;40.232;29.132;2023-05-07T11:28:18;21.30;81.90
8945;DHT22;4507;40.232;29.132;2023-05-07T11:30:59;21.20;81.90
8945;DHT22;4507;40.232;29.132;2023-05-07T11:33:29;21.10;82.20
8945;DHT22;4507;40.232;29.132;2023-05-07T11:36:03;21.00;83.00
8945;DHT22;4507;40.232;29.132;2023-05-07T11:38:38;21.00;84.10
8945;DHT22;4507;40.232;29.132;2023-05-07T11:41:08;21.00;84.40
8945;DHT22;4507;40.232;29.132;2023-05-07T11:43:38;21.00;84.10
8945;DHT22;4507;40.232;29.132;2023-05-07T11:46:10;21.10;83.40
8945;DHT22;4507;40.232;29.132;2023-05-07T11:48:39;21.00;82.40
8945;DHT22;4507;40.232;29.132;2023-05-07T11:51:09;21.00;83.50
8945;DHT22;4507;40.232;29.132;2023-05-07T11:53:42;21.10;84.30
8945;DHT22;4507;40.232;29.132;2023-05-07T11:56:14;21.10;84.30
8945;DHT22;4507;40.232;29.132;2023-05-07T11:58:45;21.10;84.00
8945;DHT22;4507;40.232;29.132;2023-05-07T12:01:15;21.10;84.00
8945;DHT22;4507;40.232;29.132;2023-05-07T12:03:46;21.10;83.90
8945;DHT22;4507;40.232;29.132;2023-05-07T12:06:16;21.10;83.40
8945;DHT22;4507;40.232;29.132;2023-05-07T12:08:46;21.10;84.10
8945;DHT22;4507;40.232;29.132;2023-05-07T12:11:24;21.00;83.20
8945;DHT22;4507;40.232;29.132;2023-05-07T12:13:56;20.40;82.40
8945;DHT22;4507;40.232;29.132;2023-05-07T12:16:32;20.90;83.20
8945;DHT22;4507;40.232;29.132;2023-05-07T12:19:06;20.80;83.20
8945;DHT22;4507;40.232;29.132;2023-05-07T12:21:50;20.80;83.70
8945;DHT22;4507;40.232;29.132;2023-05-07T12:24:27;20.70;84.00
8945;DHT22;4507;40.232;29.132;2023-05-07T12:27:04;20.70;84.20
8945;DHT22;4507;40.232;29.132;2023-05-07T12:29:34;20.70;85.70
8945;DHT22;4507;40.232;29.132;2023-05-07T12:32:25;20.80;86.00
8945;DHT22;4507;40.232;29.132;2023-05-07T12:34:57;20.80;85.40
8945;DHT22;4507;40.232;29.132;2023-05-07T12:37:26;20.90;85.60
8945;DHT22;4507;40.232;29.132;2023-05-07T12:40:05;21.00;85.70
8945;DHT22;4507;40.232;29.132;2023-05-07T12:42:39;21.10;86.00
8945;DHT22;4507;40.232;29.132;2023-05-07T12:45:09;21.20;86.10
8945;DHT22;4507;40.232;29.132;2023-05-07T12:47:43;21.30;86.10
8945;DHT22;4507;40.232;29.132;2023-05-07T12:50:14;21.50;85.30
8945;DHT22;4507;40.232;29.132;2023-05-07T12:52:45;21.60;84.70
8945;DHT22;4507;40.232;29.132;2023-05-07T12:55:16;21.70;85.00
8945;DHT22;4507;40.232;29.132;2023-05-07T12:57:48;21.90;85.40
8945;DHT22;4507;40.232;29.132;2023-05-07T13:00:18;22.10;84.60
8945;DHT22;4507;40.232;29.132;2023-05-07T13:03:00;22.20;83.50
8945;DHT22;4507;40.232;29.132;2023-05-07T13:05:30;22.40;83.10
8945;DHT22;4507;40.232;29.132;2023-05-07T13:07:59;22.50;81.60
8945;DHT22;4507;40.232;29.132;2023-05-07T13:10:28;22.60;79.90
8945;DHT22;4507;40.232;29.132;2023-05-07T13:12:59;22.60;78.60
8945;DHT22;4507;40.232;29.132;2023-05-07T13:15:28;22.60;77.20
8945;DHT22;4507;40.232;29.132;2023-05-07T13:17:57;22.50;76.90
8945;DHT22;4507;40.232;29.132;2023-05-07T13:20:26;22.40;77.60
8945;DHT22;4507;40.232;29.132;2023-05-07T13:22:55;22.30;77.20
8945;DHT22;4507;40.232;29.132;2023-05-07T13:25:24;22.30;77.00
8945;DHT22;4507;40.232;29.132;2023-05-07T13:27:53;22.20;77.00
8945;DHT22;4507;40.232;29.132;2023-05-07T13:30:38;22.10;77.40
8945;DHT22;4507;40.232;29.132;2023-05-07T13:33:08;22.00;77.70
8945;DHT22;4507;40.232;29.132;2023-05-07T13:35:37;21.90;77.60
8945;DHT22;4507;40.232;29.132;2023-05-07T13:38:06;21.80;77.90
8945;DHT22;4507;40.232;29.132;2023-05-07T13:40:35;21.70;78.20
8945;DHT22;4507;40.232;29.132;2023-05-07T13:43:06;21.60;78.60
8945;DHT22;4507;40.232;29.132;2023-05-07T13:45:37;21.50;78.90
8945;DHT22;4507;40.232;29.132;2023-05-07T13:48:06;21.40;79.30
8945;DHT22;4507;40.232;29.132;2023-05-07T13:50:36;21.30;79.70
8945;DHT22;4507;40.232;29.132;2023-05-07T13:53:10;21.20;79.80
8945;DHT22;4507;40.232;29.132;2023-05-07T13:55:39;21.00;80.40
8945;DHT22;4507;40.232;29.132;2023-05-07T13:58:08;20.90;80.70
8945;DHT22;4507;40.232;29.132;2023-05-07T14:00:38;20.80;81.10
8945;DHT22;4507;40.232;29.132;2023-05-07T14:03:09;20.70;81.70
8945;DHT22;4507;40.232;29.132;2023-05-07T14:05:39;20.60;81.90
8945;DHT22;4507;40.232;29.132;2023-05-07T14:08:09;20.50;82.10
8945;DHT22;4507;40.232;29.132;2023-05-07T14:10:40;20.40;82.60
8945;DHT22;4507;40.232;29.132;2023-05-07T14:13:09;20.30;83.10
8945;DHT22;4507;40.232;29.132;2023-05-07T14:15:40;20.20;83.40
8945;DHT22;4507;40.232;29.132;2023-05-07T14:18:13;20.20;83.80
8945;DHT22;4507;40.232;29.132;2023-05-07T14:20:42;20.10;84.00
8945;DHT22;4507;40.232;29.132;2023-05-07T14:23:13;20.00;84.30
8945;DHT22;4507;40.232;29.132;2023-05-07T14:26:03;20.00;84.70
8945;DHT22;4507;40.232;29.132;2023-05-07T14:28:32;20.00;85.30
8945;DHT22;4507;40.232;29.132;2023-05-07T14:31:03;19.90;85.70
8945;DHT22;4507;40.232;29.132;2023-05-07T14:33:32;19.90;86.20
8945;DHT22;4507;40.232;29.132;2023-05-07T14:36:01;19.90;86.80
8945;DHT22;4507;40.232;29.132;2023-05-07T14:38:30;19.80;87.10
8945;DHT22;4507;40.232;29.132;2023-05-07T14:41:00;19.80;87.50
8945;DHT22;4507;40.232;29.132;2023-05-07T14:43:29;19.80;87.70
8945;DHT22;4507;40.232;29.132;2023-05-07T14:45:58;19.70;87.60
8945;DHT22;4507;40.232;29.132;2023-05-07T14:48:28;19.70;87.90
8945;DHT22;4507;40.232;29.132;2023-05-07T14:50:58;19.70;88.30
8945;DHT22;4507;40.232;29.132;2023-05-07T14:53:27;19.60;88.60
8945;DHT22;4507;40.232;29.132;2023-05-07T14:55:56;19.40;88.50
8945;DHT22;4507;40.232;29.132;2023-05-07T14:58:25;19.60;88.90
8945;DHT22;4507;40.232;29.132;2023-05-07T15:00:54;19.70;89.10
8945;DHT22;4507;40.232;29.132;2023-05-07T15:03:23;19.60;88.90
8945;DHT22;4507;40.232;29.132;2023-05-07T15:05:53;19.60;88.80
8945;DHT22;4507;40.232;29.132;2023-05-07T15:08:24;19.70;88.70
8945;DHT22;4507;40.232;29.132;2023-05-07T15:10:54;19.60;88.50
8945;DHT22;4507;40.232;29.132;2023-05-07T15:13:23;19.60;88.80
8945;DHT22;4507;40.232;29.132;2023-05-07T15:15:56;19.60;88.80
8945;DHT22;4507;40.232;29.132;2023-05-07T15:18:25;19.70;89.00
8945;DHT22;4507;40.232;29.132;2023-05-07T15:20:55;19.70;89.00
8945;DHT22;4507;40.232;29.132;2023-05-07T15:23:25;19.70;88.90
8945;DHT22;4507;40.232;29.132;2023-05-07T15:25:54;19.70;88.80
8945;DHT22;4507;40.232;29.132;2023-05-07T15:28:23;19.70;88.80
8945;DHT22;4507;40.232;29.132;2023-05-07T15:30:55;19.70;89.10
8945;DHT22;4507;40.232;29.132;2023-05-07T15:33:24;19.70;89.30
8945;DHT22;4507;40.232;29.132;2023-05-07T15:35:55;19.80;89.10
8945;DHT22;4507;40.232;29.132;2023-05-07T15:38:26;19.80;88.60
8945;DHT22;4507;40.232;29.132;2023-05-07T15:40:55;19.90;88.40
8945;DHT22;4507;40.232;29.132;2023-05-07T15:43:24;19.90;88.40
8945;DHT22;4507;40.232;29.132;2023-05-07T15:45:53;20.00;88.20
8945;DHT22;4507;40.232;29.132;2023-05-07T15:48:22;20.00;87.80
8945;DHT22;4507;40.232;29.132;2023-05-07T15:50:51;20.00;87.20
8945;DHT22;4507;40.232;29.132;2023-05-07T15:53:21;20.00;86.80
8945;DHT22;4507;40.232;29.132;2023-05-07T15:55:51;20.00;86.40
8945;DHT22;4507;40.232;29.132;2023-05-07T15:58:20;20.00;86.40
8945;DHT22;4507;40.232;29.132;2023-05-07T16:00:48;20.00;86.20
8945;DHT22;4507;40.232;29.132;2023-05-07T16:03:18;20.00;86.00
8945;DHT22;4507;40.232;29.132;2023-05-07T16:05:48;19.90;85.20
8945;DHT22;4507;40.232;29.132;2023-05-07T16:08:18;19.90;84.90
8945;DHT22;4507;40.232;29.132;2023-05-07T16:10:49;19.80;84.10
8945;DHT22;4507;40.232;29.132;2023-05-07T16:13:18;19.70;83.80
8945;DHT22;4507;40.232;29.132;2023-05-07T16:15:47;19.70;83.90
8945;DHT22;4507;40.232;29.132;2023-05-07T16:18:16;19.60;83.50